Time;durP1;ratioP1;P1;durP2;ratioP2;P2;SDS_P1;SDS_P2;PMS_P1;PMS_P2;Temp;Humidity;BMP_temperature;BMP_pressure;BME280_temperature;BME280_humidity;BME280_pressure;Samples;Min_cycle;Max_cycle;Signal;HPM_P1;HPM_P2
2023/12/04 00:03:06;;;;;;;14.57;11.25;;;;;;;3.54;80.72;98195.34;10368330;28;20103;-47
2023/12/04 00:08:04;;;;;;;15.18;10.73;;;;;;;3.57;79.77;98238.19;10367330;28;20025;-47
2023/12/04 00:13:03;;;;;;;16.15;11.43;;;;;;;2.68;81.35;98077.00;10367696;28;20104;-47
2023/12/04 00:18:02;;;;;;;16.13;11.15;;;;;;;3.55;79.29;98224.44;10367815;28;20047;-47
2023/12/04 00:23:01;;;;;;;18.60;11.85;;;;;;;3.41;78.34;98229.09;10366704;28;20116;-47
2023/12/04 00:28:00;;;;;;;16.45;11.15;;;;;;;3.31;80.32;98220.22;10367877;28;20068;-48
2023/12/04 00:32:59;;;;;;;16.55;11.82;;;;;;;3.05;80.73;98169.66;10367001;28;20535;-47
2023/12/04 00:37:58;;;;;;;17.63;11.75;;;;;;;3.12;79.74;98189.59;10366680;28;20076;-48
2023/12/04 00:42:58;;;;;;;20.92;13.90;;;;;;;3.23;78.88;98226.75;10366905;28;20056;-48
2023/12/04 00:47:57;;;;;;;15.63;10.55;;;;;;;3.52;78.59;98270.50;10366233;28;20106;-48
2023/12/04 00:52:55;;;;;;;15.65;10.90;;;;;;;3.42;78.33;98280.47;10366397;28;20025;-48
2023/12/04 00:57:54;;;;;;;16.05;10.48;;;;;;;3.21;78.65;98254.03;10365877;28;20025;-48
2023/12/04 01:02:54;;;;;;;16.65;11.50;;;;;;;3.32;78.80;98275.81;10367411;28;20482;-47
2023/12/04 01:07:53;;;;;;;15.45;11.18;;;;;;;2.81;78.69;98221.81;10367690;28;20504;-48
2023/12/04 01:12:51;;;;;;;13.40;9.40;;;;;;;2.86;77.87;98230.53;10368142;28;20498;-47
2023/12/04 01:17:50;;;;;;;14.38;9.95;;;;;;;2.94;77.95;98275.28;10367507;28;20476;-47
2023/12/04 01:22:49;;;;;;;14.60;9.85;;;;;;;2.87;74.98;98278.44;10367502;28;20422;-47
2023/12/04 01:27:50;;;;;;;13.80;10.40;;;;;;;3.09;77.73;98297.19;10366422;28;20056;-48
2023/12/04 01:32:49;;;;;;;15.95;10.52;;;;;;;2.82;76.27;98233.81;10367277;28;20068;-48
2023/12/04 01:37:47;;;;;;;13.35;9.23;;;;;;;3.08;74.25;98275.78;10367171;28;20268;-48
2023/12/04 01:42:46;;;;;;;11.27;7.72;;;;;;;3.22;71.19;98304.50;10367636;28;20056;-47
2023/12/04 01:47:47;;;;;;;12.70;9.23;;;;;;;3.16;68.40;98309.41;10350445;28;20033;-47
2023/12/04 01:52:46;;;;;;;15.10;10.20;;;;;;;2.96;68.37;98295.84;10366389;28;20064;-47
2023/12/04 01:57:46;;;;;;;12.60;9.13;;;;;;;2.79;67.17;98264.44;10348332;28;20068;-48
2023/12/04 02:02:46;;;;;;;12.95;9.25;;;;;;;2.97;68.48;98303.59;10366667;28;20067;-48
2023/12/04 02:07:45;;;;;;;;;;;;;;;3.08;67.81;98323.66;10367262;28;20065;-48
2023/12/04 02:12:44;;;;;;;11.13;7.77;;;;;;;2.95;68.61;98318.03;10367029;28;19972;-48
2023/12/04 02:17:46;;;;;;;9.02;7.85;;;;;;;2.86;62.69;98281.78;10373590;28;20060;-48
2023/12/04 02:22:45;;;;;;;10.73;8.10;;;;;;;2.69;62.03;98282.84;10373334;28;20075;-47
2023/12/04 02:27:50;;;;;;;12.23;9.63;;;;;;;2.81;59.50;98332.88;10373615;28;20028;-47
2023/12/04 02:32:51;;;;;;;12.05;9.05;;;;;;;2.52;61.94;98293.31;10371165;28;20068;-48
2023/12/04 02:37:51;;;;;;;10.77;9.05;;;;;;;2.59;61.51;98303.00;10372909;28;20112;-48
2023/12/04 02:42:50;;;;;;;11.57;8.50;;;;;;;2.48;63.47;98298.25;10372946;28;20067;-47
2023/12/04 02:47:49;;;;;;;11.63;9.25;;;;;;;2.51;62.83;98329.13;10372755;28;20065;-47
2023/12/04 02:52:47;;;;;;;11.02;8.15;;;;;;;2.43;60.70;98333.94;10371554;28;20041;-47
2023/12/04 02:57:46;;;;;;;9.27;8.27;;;;;;;2.31;57.92;98343.69;10371507;28;20101;-48
2023/12/04 03:02:45;;;;;;;10.02;8.48;;;;;;;2.12;57.29;98291.72;10371652;28;20536;-48
2023/12/04 03:07:45;;;;;;;11.15;8.65;;;;;;;2.28;59.20;98325.66;10371769;28;20556;-48
2023/12/04 03:12:44;;;;;;;10.20;8.85;;;;;;;2.60;58.46;98355.09;10372394;28;20545;-50
2023/12/04 03:17:43;;;;;;;10.10;8.90;;;;;;;2.49;58.56;98338.44;10371762;28;20384;-47
2023/12/04 03:22:42;;;;;;;21.10;14.10;;;;;;;2.68;59.47;98346.06;10371095;28;20090;-48
2023/12/04 03:27:41;;;;;;;16.02;11.93;;;;;;;2.86;61.63;98358.69;10371653;28;20037;-48
2023/12/04 03:32:40;;;;;;;31.45;23.20;;;;;;;2.82;63.58;98367.09;10371409;28;20149;-48
2023/12/04 03:37:39;;;;;;;18.73;12.93;;;;;;;2.72;64.90;98344.47;10370104;28;20040;-48
2023/12/04 03:42:38;;;;;;;19.27;11.57;;;;;;;2.77;63.52;98359.22;10370123;28;20480;-48
2023/12/04 03:47:36;;;;;;;16.25;12.50;;;;;;;2.80;63.93;98369.59;10371190;28;20104;-48
2023/12/04 03:52:35;;;;;;;18.50;13.57;;;;;;;2.47;63.33;98296.53;10371268;28;20057;-48
2023/12/04 03:57:34;;;;;;;12.50;9.07;;;;;;;2.40;63.12;98303.09;10369982;28;20059;-48
2023/12/04 04:02:33;;;;;;;11.57;9.25;;;;;;;2.74;62.85;98348.84;10352266;28;20032;-48
2023/12/04 04:07:32;;;;;;;11.43;8.45;;;;;;;2.66;62.98;98334.00;10369965;28;20029;-48
2023/12/04 04:12:31;;;;;;;8.95;7.80;;;;;;;2.72;56.12;98377.78;10370603;28;20051;-48
2023/12/04 04:17:32;;;;;;;9.40;8.27;;;;;;;2.37;57.29;98326.91;10369772;28;20035;-48
2023/12/04 04:22:34;;;;;;;11.63;9.00;;;;;;;2.70;57.37;98382.88;10369796;28;20111;-48
2023/12/04 04:27:33;;;;;;;12.00;9.13;;;;;;;2.72;58.14;98383.81;10368876;28;20075;-48
2023/12/04 04:32:32;;;;;;;12.30;10.38;;;;;;;2.25;60.21;98333.19;10369561;28;20534;-48
2023/12/04 04:37:31;;;;;;;12.70;10.55;;;;;;;2.58;60.91;98375.56;10367508;28;20483;-49
2023/12/04 04:42:30;;;;;;;14.95;10.80;;;;;;;2.67;62.26;98369.03;10368560;28;20061;-48
2023/12/04 04:47:29;;;;;;;12.63;10.10;;;;;;;2.63;60.87;98378.31;10368386;28;20079;-49
2023/12/04 04:52:28;;;;;;;13.00;10.50;;;;;;;2.68;60.33;98386.19;10368760;28;20103;-49
2023/12/04 04:57:27;;;;;;;14.05;9.82;;;;;;;2.15;61.84;98298.66;10367844;28;20037;-49
2023/12/04 05:02:26;;;;;;;14.82;11.32;;;;;;;2.38;60.08;98325.19;10368574;28;20055;-49
2023/12/04 05:07:25;;;;;;;14.70;10.95;;;;;;;2.52;59.76;98367.63;10367932;28;20044;-48
2023/12/04 05:12:24;;;;;;;16.48;12.57;;;;;;;2.58;61.30;98379.78;10367987;28;20391;-48
2023/12/04 05:17:22;;;;;;;14.52;10.80;;;;;;;2.06;61.34;98342.66;10368005;28;20087;-49
2023/12/04 05:22:21;;;;;;;13.98;11.90;;;;;;;2.69;61.33;98429.78;10367003;28;20132;-49
2023/12/04 05:27:20;;;;;;;13.57;10.63;;;;;;;2.03;60.25;98370.72;10365632;28;20562;-48
2023/12/04 05:32:20;;;;;;;12.30;9.48;;;;;;;2.10;60.90;98415.38;10367061;28;20515;-48
2023/12/04 05:37:19;;;;;;;13.30;9.80;;;;;;;1.90;62.07;98422.16;10365751;28;20067;-48
2023/12/04 05:42:18;;;;;;;12.93;9.57;;;;;;;1.87;63.46;98448.50;10367231;28;20234;-49
2023/12/04 05:47:17;;;;;;;14.85;10.60;;;;;;;1.92;65.11;98451.28;10368449;28;20123;-49
2023/12/04 05:52:16;;;;;;;15.70;11.63;;;;;;;1.78;65.56;98448.09;10377048;28;20111;-49
2023/12/04 05:57:16;;;;;;;21.02;12.95;;;;;;;1.89;66.55;98446.03;10374165;28;20559;-48
2023/12/04 06:02:15;;;;;;;20.35;12.70;;;;;;;1.79;66.53;98436.19;10374687;28;20060;-49
2023/12/04 06:07:15;;;;;;;18.95;12.88;;;;;;;2.05;66.90;98468.06;10373900;28;20040;-49
2023/12/04 06:12:13;;;;;;;16.35;11.57;;;;;;;1.82;67.81;98431.22;10373967;28;20115;-49
2023/12/04 06:17:12;;;;;;;17.00;11.73;;;;;;;2.14;68.01;98476.16;10373493;28;20033;-49
2023/12/04 06:22:12;;;;;;;19.80;13.30;;;;;;;2.06;67.94;98447.63;10371902;28;20045;-49
2023/12/04 06:27:14;;;;;;;20.13;13.40;;;;;;;2.14;67.88;98453.97;10371350;28;20072;-49
2023/12/04 06:32:14;;;;;;;23.02;15.73;;;;;;;1.91;67.60;98388.09;10372492;28;20183;-49
2023/12/04 06:37:13;;;;;;;28.48;18.90;;;;;;;2.59;68.28;98487.47;10371792;28;20107;-48
2023/12/04 06:42:13;;;;;;;25.35;18.02;;;;;;;2.50;68.22;98440.09;10371934;28;20516;-48
2023/12/04 06:47:12;;;;;;;;;;;;;;;3.00;66.05;98496.00;10372751;28;20071;-49
2023/12/04 06:52:11;;;;;;;22.63;12.27;;;;;;;2.84;63.81;98478.25;10372043;28;20010;-48
2023/12/04 06:57:10;;;;;;;15.75;11.55;;;;;;;2.55;62.12;98465.09;10371029;28;20055;-49
2023/12/04 07:02:09;;;;;;;17.45;11.07;;;;;;;2.35;61.50;98515.47;10370483;28;20037;-48
2023/12/04 07:07:08;;;;;;;13.52;11.15;;;;;;;2.25;62.21;98469.78;10370826;28;20032;-48
2023/12/04 07:12:07;;;;;;;14.18;9.13;;;;;;;2.78;62.39;98516.44;10370884;28;20507;-51
2023/12/04 07:17:06;;;;;;;11.07;8.73;;;;;;;2.75;61.45;98514.63;10366578;28;20491;-49
2023/12/04 07:22:05;;;;;;;14.20;9.50;;;;;;;2.61;59.60;98497.78;10370343;28;20443;-49
2023/12/04 07:27:04;;;;;;;14.13;10.15;;;;;;;2.69;58.67;98498.97;10369928;28;20071;-48
2023/12/04 07:32:04;;;;;;;12.52;9.10;;;;;;;2.83;59.10;98504.69;10371002;28;20068;-49
2023/12/04 07:37:03;;;;;;;10.40;8.95;;;;;;;3.00;58.17;98496.00;10367535;28;20075;-49
2023/12/04 07:42:02;;;;;;;12.30;7.90;;;;;;;2.58;55.67;98456.66;10366388;28;20490;-49
2023/12/04 07:47:01;;;;;;;10.85;8.70;;;;;;;2.87;56.56;98492.88;10368680;28;20689;-49
2023/12/04 07:52:00;;;;;;;10.50;8.50;;;;;;;2.92;56.55;98469.16;10366364;28;20416;-49
2023/12/04 07:56:59;;;;;;;11.98;7.75;;;;;;;3.54;55.58;98530.59;10368042;28;20037;-49
2023/12/04 08:01:58;;;;;;;12.05;9.40;;;;;;;3.13;53.01;98520.44;10368671;28;20476;-49
2023/12/04 08:06:57;;;;;;;11.35;8.63;;;;;;;2.57;53.42;98437.84;10368090;28;20526;-49
2023/12/04 08:11:56;;;;;;;9.55;7.43;;;;;;;2.85;51.03;98530.38;10367933;28;20491;-49
2023/12/04 08:16:55;;;;;;;11.88;8.40;;;;;;;2.89;51.39;98509.19;10367712;28;20076;-49
2023/12/04 08:21:55;;;;;;;11.88;8.57;;;;;;;3.26;53.49;98539.78;10368375;28;20049;-49
2023/12/04 08:26:54;;;;;;;14.15;11.10;;;;;;;3.08;52.40;98518.53;10351166;28;20068;-49
2023/12/04 08:31:53;;;;;;;15.80;11.05;;;;;;;2.91;53.48;98477.69;10367585;28;20039;-49
2023/12/04 08:36:52;;;;;;;14.65;10.82;;;;;;;3.16;52.84;98518.00;10352197;28;20044;-49
2023/12/04 08:41:51;;;;;;;13.27;10.63;;;;;;;3.20;53.78;98490.78;10367074;28;20872;-49
2023/12/04 08:46:50;;;;;;;14.65;11.85;;;;;;;3.58;53.79;98533.34;10366646;28;20036;-48
2023/12/04 08:51:52;;;;;;;14.60;11.57;;;;;;;3.63;52.97;98513.84;10367871;28;20067;-49
2023/12/04 08:56:51;;;;;;;14.68;11.70;;;;;;;3.64;53.45;98491.66;10366884;28;20120;-49
2023/12/04 09:01:50;;;;;;;16.20;12.77;;;;;;;4.07;52.38;98532.66;10365600;28;20108;-49
2023/12/04 09:06:49;;;;;;;12.93;10.30;;;;;;;3.70;51.63;98484.19;10366785;28;20037;-50
2023/12/04 09:11:48;;;;;;;10.70;9.05;;;;;;;3.72;51.45;98477.41;10366222;28;20420;-50
2023/12/04 09:16:47;;;;;;;11.75;8.88;;;;;;;2.93;50.83;98318.78;10357548;28;20059;-49
2023/12/04 09:21:46;;;;;;;16.30;11.73;;;;;;;4.21;51.12;98524.56;10364342;28;20124;-50
2023/12/04 09:26:45;;;;;;;12.52;8.98;;;;;;;4.27;51.25;98517.97;10365762;28;20060;-49
2023/12/04 09:31:44;;;;;;;9.85;7.85;;;;;;;4.05;51.64;98459.78;10365901;28;20121;-50
2023/12/04 09:36:43;;;;;;;10.02;8.57;;;;;;;4.39;51.64;98483.25;10366057;28;20043;-49
2023/12/04 09:41:44;;;;;;;12.68;9.52;;;;;;;4.76;49.93;98505.06;10365756;28;20035;-49
2023/12/04 09:46:43;;;;;;;11.13;8.70;;;;;;;4.50;47.93;98453.66;10364053;28;20064;-49
2023/12/04 09:51:42;;;;;;;10.68;8.60;;;;;;;4.33;49.15;98444.50;10350444;28;20475;-50
2023/12/04 09:56:41;;;;;;;14.07;9.40;;;;;;;4.31;49.39;98497.53;10361305;28;20399;-49
2023/12/04 10:01:41;;;;;;;10.00;8.40;;;;;;;3.74;50.36;98421.88;10363083;28;20809;-52
2023/12/04 10:06:41;;;;;;;9.75;8.68;;;;;;;3.97;49.29;98445.81;10362180;28;20068;-49
2023/12/04 10:11:41;;;;;;;9.80;8.80;;;;;;;4.27;50.54;98473.44;10363004;28;20118;-49
2023/12/04 10:16:40;;;;;;;10.55;8.93;;;;;;;4.29;50.01;98434.13;10362287;28;20132;-49
2023/12/04 10:21:39;;;;;;;11.48;9.55;;;;;;;4.28;49.70;98460.63;10360243;28;20090;-49
2023/12/04 10:26:49;;;;;;;12.35;9.73;;;;;;;4.35;50.25;98442.84;10363833;28;20021;-52
2023/12/04 10:31:50;;;;;;;10.57;9.02;;;;;;;3.73;49.18;98361.09;10364929;28;20108;-49
2023/12/04 10:36:49;;;;;;;9.55;8.55;;;;;;;4.24;50.55;98432.19;10365894;28;20515;-49
2023/12/04 10:42:00;;;;;;;11.32;8.85;;;;;;;4.41;50.27;98418.25;10370971;28;20638;-49
2023/12/04 10:47:01;;;;;;;12.32;9.07;;;;;;;4.75;50.14;98442.50;10369128;28;20515;-49
2023/12/04 10:52:01;;;;;;;12.48;11.18;;;;;;;4.79;50.09;98412.63;10369447;28;20219;-49
2023/12/04 10:57:03;;;;;;;17.20;12.57;;;;;;;5.11;50.12;98440.28;10373119;28;20068;-50
2023/12/04 11:02:08;;;;;;;9.77;8.35;;;;;;;4.91;48.83;98428.44;10370638;28;20048;-49
2023/12/04 11:07:09;;;;;;;9.15;8.25;;;;;;;3.73;48.28;98250.72;10366491;28;20108;-50
2023/12/04 11:12:14;;;;;;;10.27;7.70;;;;;;;5.01;50.35;98443.38;10356802;28;20510;-50
2023/12/04 11:17:14;;;;;;;8.20;7.18;;;;;;;5.20;48.71;98437.09;10364741;28;20567;-51
2023/12/04 11:22:15;;;;;;;8.90;7.15;;;;;;;5.15;46.89;98420.66;10368157;28;20128;-49
2023/12/04 11:27:17;;;;;;;9.00;8.10;;;;;;;4.88;48.21;98384.66;10365285;28;20052;-50
2023/12/04 11:32:17;;;;;;;12.40;10.05;;;;;;;4.86;48.69;98340.00;10368344;28;20052;-48
2023/12/04 11:37:16;;;;;;;8.85;7.95;;;;;;;5.23;47.52;98382.31;10367892;28;20132;-50
2023/12/04 11:42:25;;;;;;;8.38;7.57;;;;;;;5.02;47.09;98347.41;10366665;28;20056;-50
2023/12/04 11:47:24;;;;;;;9.23;7.82;;;;;;;5.06;47.68;98322.63;10367750;28;20057;-51
2023/12/04 11:52:34;;;;;;;9.30;7.10;;;;;;;5.50;46.61;98374.53;10368670;28;20060;-52
2023/12/04 11:57:39;;;;;;;8.25;7.28;;;;;;;5.37;47.01;98357.88;10367753;28;20118;-50
2023/12/04 12:02:40;;;;;;;11.05;8.25;;;;;;;5.63;47.21;98371.47;10368011;28;20059;-47
2023/12/04 12:07:39;;;;;;;10.32;8.75;;;;;;;5.49;46.60;98360.78;10367531;28;20067;-49
2023/12/04 12:12:40;;;;;;;13.68;10.63;;;;;;;5.58;46.79;98373.06;10365829;28;20140;-53
2023/12/04 12:17:40;;;;;;;11.93;9.23;;;;;;;5.41;47.04;98340.78;10366588;28;20139;-50
2023/12/04 12:22:41;;;;;;;12.95;9.18;;;;;;;5.68;47.07;98358.75;10366192;28;20080;-50
2023/12/04 12:27:40;;;;;;;9.88;8.88;;;;;;;5.72;46.65;98347.69;10363067;28;20045;-47
2023/12/04 12:32:39;;;;;;;12.13;9.50;;;;;;;5.83;47.10;98333.41;10366354;28;20328;-48
2023/12/04 12:37:39;;;;;;;10.65;9.60;;;;;;;6.17;46.12;98337.75;10364132;28;20025;-48
2023/12/04 12:42:48;;;;;;;10.90;8.88;;;;;;;6.13;47.19;98310.13;10364768;28;20124;-49
2023/12/04 12:47:48;;;;;;;11.60;10.25;;;;;;;6.28;47.13;98314.84;10365304;28;20107;-48
2023/12/04 12:52:48;;;;;;;13.55;10.07;;;;;;;6.48;46.67;98332.47;10354032;28;20071;-48
2023/12/04 12:57:47;;;;;;;13.25;10.68;;;;;;;6.18;46.92;98263.88;10359660;28;20152;-48
2023/12/04 13:02:46;;;;;;;13.05;10.48;;;;;;;6.66;47.05;98312.31;10362727;28;20056;-49
2023/12/04 13:07:46;;;;;;;11.20;9.50;;;;;;;6.26;45.30;98269.22;10365141;28;20141;-48
2023/12/04 13:12:45;;;;;;;10.55;9.02;;;;;;;6.14;44.95;98274.94;10366189;28;20103;-51
2023/12/04 13:17:44;;;;;;;8.82;7.88;;;;;;;6.01;45.16;98299.53;10366055;28;20743;-51
2023/12/04 13:22:43;;;;;;;10.98;9.45;;;;;;;5.63;44.47;98254.75;10365963;28;20049;-48
2023/12/04 13:27:42;;;;;;;11.65;8.75;;;;;;;6.03;45.86;98318.47;10366274;28;20994;-49
2023/12/04 13:32:41;;;;;;;9.25;8.15;;;;;;;5.69;44.92;98306.41;10364415;28;20780;-49
2023/12/04 13:37:40;;;;;;;19.58;14.88;;;;;;;5.56;45.98;98284.59;10365126;28;20031;-48
2023/12/04 13:47:56;;;;;;;15.30;11.50;;;;;;;5.46;45.88;98233.69;10364617;28;20516;-48
2023/12/04 13:52:56;;;;;;;23.52;16.00;;;;;;;5.42;46.06;98227.59;10365256;28;20029;-49
2023/12/04 14:03:06;;;;;;;11.90;9.75;;;;;;;5.89;46.57;98324.97;10365723;28;20129;-49
2023/12/04 14:08:06;;;;;;;13.60;10.07;;;;;;;5.96;47.89;98338.06;10362298;28;20167;-49
2023/12/04 14:13:05;;;;;;;11.60;9.55;;;;;;;5.85;48.46;98313.72;10369632;28;20135;-50
2023/12/04 14:18:04;;;;;;;17.15;13.50;;;;;;;5.93;49.07;98337.97;10372555;28;20036;-49
2023/12/04 14:23:04;;;;;;;27.98;19.70;;;;;;;5.71;50.21;98320.19;10370732;28;20827;-48
2023/12/04 14:28:04;;;;;;;40.40;20.25;;;;;;;5.62;51.48;98333.69;10373041;28;20061;-49
2023/12/04 14:33:03;;;;;;;52.97;31.83;;;;;;;5.54;52.37;98359.22;10370858;28;20103;-51
2023/12/04 14:38:02;;;;;;;47.90;33.17;;;;;;;5.00;52.55;98313.03;10371239;28;20075;-48
2023/12/04 14:43:01;;;;;;;34.20;21.05;;;;;;;4.31;54.12;98327.94;10370091;28;20112;-50
2023/12/04 14:48:00;;;;;;;41.72;26.65;;;;;;;3.92;54.51;98302.69;10368947;28;20551;-49
2023/12/04 14:53:11;;;;;;;32.13;21.15;;;;;;;3.95;53.16;98336.19;10370934;28;20472;-49
2023/12/04 15:14:00;;;;;;;14.23;10.95;;;;;;;3.57;52.13;98385.34;10370189;28;20136;-51
2023/12/04 15:24:06;;;;;;;26.45;18.40;;;;;;;3.25;52.92;98402.06;10370059;28;20076;-49
2023/12/04 15:29:05;;;;;;;33.92;20.63;;;;;;;2.90;55.04;98360.56;10370307;28;20491;-49
2023/12/04 15:34:04;;;;;;;43.45;28.23;;;;;;;3.11;56.68;98416.94;10369328;28;20506;-48
2023/12/04 15:39:04;;;;;;;30.33;20.42;;;;;;;2.84;56.74;98370.59;10370008;28;20044;-48
2023/12/04 15:44:03;;;;;;;22.67;17.13;;;;;;;2.68;56.47;98351.19;10368296;28;20064;-50
2023/12/04 15:49:03;;;;;;;24.63;17.60;;;;;;;2.82;56.20;98367.09;10367626;28;20499;-49
2023/12/04 15:54:03;;;;;;;22.08;16.95;;;;;;;2.78;56.39;98347.28;10368648;28;20068;-49
2023/12/04 15:59:02;;;;;;;21.77;15.30;;;;;;;2.77;56.16;98353.25;10368954;28;20105;-49
2023/12/04 16:04:01;;;;;;;17.70;12.95;;;;;;;2.77;55.51;98353.25;10367820;28;20426;-52
2023/12/04 16:09:00;;;;;;;16.50;11.15;;;;;;;2.71;54.09;98378.59;10366719;28;20024;-50
2023/12/04 16:13:59;;;;;;;;;;;;;;;2.78;54.36;98411.34;10368237;28;20514;-51
2023/12/04 16:18:58;;;;;;;22.30;14.75;;;;;;;2.58;54.87;98383.25;10367010;28;20434;-53
2023/12/04 16:23:58;;;;;;;18.48;14.35;;;;;;;2.54;54.42;98376.25;10367747;28;20062;-50
2023/12/04 16:28:57;;;;;;;17.88;12.95;;;;;;;2.46;53.40;98418.59;10366413;28;20491;-50
2023/12/04 16:33:56;;;;;;;64.40;40.80;;;;;;;2.14;54.19;98395.09;10365649;28;20552;-51
2023/12/04 16:38:55;;;;;;;21.73;16.25;;;;;;;2.25;54.90;98433.06;10358732;28;20496;-50
2023/12/04 16:43:54;;;;;;;21.45;16.80;;;;;;;2.20;55.02;98417.50;10364533;28;20104;-50
2023/12/04 16:48:53;;;;;;;16.70;13.60;;;;;;;2.19;55.52;98418.31;10357712;28;20028;-51
2023/12/04 16:53:53;;;;;;;17.45;12.35;;;;;;;1.65;56.33;98331.56;10367232;28;20043;-50
2023/12/04 16:58:51;;;;;;;;;;;;;;;2.28;56.31;98433.22;10367308;28;20067;-51
2023/12/04 17:03:53;;;;;;;18.75;13.88;;;;;;;2.22;57.20;98422.69;10367149;28;19919;-50
2023/12/04 17:08:52;;;;;;;18.83;13.70;;;;;;;2.27;55.93;98423.75;10366336;28;20108;-51
2023/12/04 17:13:51;;;;;;;29.10;19.17;;;;;;;2.12;55.11;98426.56;10366223;28;20039;-50
2023/12/04 17:18:50;;;;;;;19.17;14.20;;;;;;;1.17;55.70;98238.25;10365868;28;20068;-50
2023/12/04 17:23:49;;;;;;;19.33;14.55;;;;;;;2.38;55.89;98436.22;10366176;28;20124;-51
2023/12/04 17:28:48;;;;;;;14.90;11.73;;;;;;;2.42;55.79;98423.50;10366004;28;20059;-50
2023/12/04 17:33:47;;;;;;;15.05;10.35;;;;;;;1.25;55.09;98204.53;10366086;28;20036;-51
2023/12/04 17:38:46;;;;;;;15.30;11.30;;;;;;;2.44;54.29;98406.53;10364886;28;20083;-49
2023/12/04 17:43:45;;;;;;;16.55;13.52;;;;;;;2.53;54.25;98427.41;10368159;28;20480;-50
2023/12/04 17:48:47;;;;;;;16.52;13.10;;;;;;;1.98;54.28;98377.31;10374401;28;20472;-50
2023/12/04 17:53:46;;;;;;;26.02;17.35;;;;;;;2.23;55.00;98422.78;10374777;28;20440;-50
2023/12/04 17:58:45;;;;;;;19.25;14.18;;;;;;;2.02;55.94;98404.81;10374232;28;20492;-51
2023/12/04 18:03:44;;;;;;;17.15;12.95;;;;;;;1.95;55.87;98438.63;10374373;28;20095;-50
2023/12/04 18:08:43;;;;;;;29.50;19.23;;;;;;;1.59;56.05;98397.78;10373885;28;20079;-51
2023/12/04 18:13:42;;;;;;;28.30;18.80;;;;;;;0.59;56.25;98231.41;10373692;28;20068;-50
2023/12/04 18:18:41;;;;;;;24.30;18.05;;;;;;;1.84;56.56;98429.59;10373174;28;20064;-50
2023/12/04 18:23:41;;;;;;;29.20;20.83;;;;;;;1.85;56.68;98431.34;10373202;28;20092;-50
2023/12/04 18:28:40;;;;;;;24.75;16.60;;;;;;;1.62;56.82;98397.03;10372950;28;20083;-52
2023/12/04 18:33:40;;;;;;;25.58;16.42;;;;;;;1.55;57.57;98390.78;10417182;28;20084;-50
2023/12/04 18:38:50;;;;;;;19.42;13.77;;;;;;;1.72;57.69;98422.25;10413042;28;20503;-50
2023/12/04 18:43:50;;;;;;;23.70;15.77;;;;;;;1.55;57.48;98406.13;10413669;28;20071;-51
2023/12/04 18:48:49;;;;;;;;;;;;;;;1.73;57.44;98432.53;10414163;28;20094;-50
2023/12/04 18:53:49;;;;;;;23.98;17.13;;;;;;;1.34;57.74;98349.78;10412944;28;19943;-50
2023/12/04 18:58:48;;;;;;;;;;;;;;;1.85;57.97;98421.09;10411683;28;20499;-50
2023/12/04 19:03:47;;;;;;;24.90;17.50;;;;;;;1.73;57.32;98390.72;10411715;28;19958;-52
2023/12/04 19:08:46;;;;;;;32.88;19.75;;;;;;;1.53;57.50;98398.41;10411774;28;20025;-51
2023/12/04 19:13:45;;;;;;;31.95;20.88;;;;;;;1.69;57.97;98399.97;10412953;28;20120;-49
2023/12/04 19:18:44;;;;;;;28.02;21.00;;;;;;;1.49;58.61;98386.28;10408669;28;20385;-51
2023/12/04 19:23:43;;;;;;;22.75;15.77;;;;;;;1.31;59.10;98409.31;10410482;28;20044;-49
2023/12/04 19:28:43;;;;;;;26.63;18.70;;;;;;;1.33;59.30;98417.94;10407067;28;20074;-59
2023/12/04 19:33:42;;;;;;;29.02;19.52;;;;;;;1.10;60.28;98405.78;10411538;28;20060;-49
2023/12/04 19:38:41;;;;;;;28.85;19.90;;;;;;;0.99;60.67;98412.06;10411409;28;20119;-50
2023/12/04 19:43:40;;;;;;;27.17;18.73;;;;;;;0.94;61.28;98433.97;10410666;28;20223;-50
2023/12/04 19:48:39;;;;;;;27.77;18.77;;;;;;;0.61;61.99;98406.88;10410488;28;20059;-50
2023/12/04 19:53:38;;;;;;;29.65;20.30;;;;;;;-0.06;62.89;98320.22;10411175;28;20112;-50
2023/12/04 19:58:37;;;;;;;26.58;17.05;;;;;;;0.26;63.36;98395.84;10409844;28;20119;-50
2023/12/04 20:03:36;;;;;;;19.00;13.63;;;;;;;0.20;63.76;98374.25;10410023;28;20737;-49
2023/12/04 20:08:35;;;;;;;21.10;14.40;;;;;;;0.31;64.24;98373.09;10409298;28;20115;-49
2023/12/04 20:13:34;;;;;;;19.27;14.38;;;;;;;-0.05;64.53;98295.59;10409314;28;20554;-50
2023/12/04 20:18:35;;;;;;;23.60;14.55;;;;;;;0.40;64.71;98367.53;10409086;28;20578;-50
2023/12/04 20:23:34;;;;;;;36.33;23.17;;;;;;;0.47;65.11;98362.81;10407708;28;20064;-50
2023/12/04 20:28:33;;;;;;;41.45;24.20;;;;;;;0.42;65.04;98361.69;10408065;28;20056;-51
2023/12/04 20:33:32;;;;;;;23.02;13.32;;;;;;;0.34;65.19;98352.81;10407723;28;20101;-50
2023/12/04 20:38:31;;;;;;;29.15;18.67;;;;;;;0.10;65.57;98318.41;10406674;28;20047;-50
2023/12/04 20:43:33;;;;;;;29.42;19.98;;;;;;;0.08;66.60;98343.88;10409082;28;20036;-50
2023/12/04 20:48:33;;;;;;;27.85;19.20;;;;;;;-0.16;67.52;98308.69;10409197;28;20630;-49
2023/12/04 20:53:32;;;;;;;38.22;21.73;;;;;;;-0.21;69.03;98306.69;10407897;28;20052;-50
2023/12/04 20:58:31;;;;;;;45.10;27.98;;;;;;;-0.24;68.37;98324.41;10408013;28;20111;-50
2023/12/04 21:03:30;;;;;;;23.23;17.05;;;;;;;-0.25;69.26;98343.03;10408940;28;20129;-50
2023/12/04 21:08:29;;;;;;;27.95;17.00;;;;;;;-0.70;69.59;98299.97;10407014;28;20028;-49
2023/12/04 21:13:28;;;;;;;23.42;14.18;;;;;;;-0.88;70.97;98314.34;10408701;28;20044;-49
2023/12/04 21:18:27;;;;;;;23.95;17.77;;;;;;;-1.03;71.89;98327.09;10406866;28;20039;-52
2023/12/04 21:23:26;;;;;;;26.05;16.30;;;;;;;-1.00;71.83;98319.66;10407381;28;20044;-50
2023/12/04 21:28:25;;;;;;;24.30;14.82;;;;;;;-1.12;71.44;98280.78;10408320;28;20740;-50
2023/12/04 21:33:25;;;;;;;23.20;15.52;;;;;;;-1.38;71.66;98244.63;10410732;28;20101;-50
2023/12/04 21:38:24;;;;;;;35.38;20.70;;;;;;;-0.96;72.49;98336.84;10407982;28;20107;-50
2023/12/04 21:43:23;;;;;;;26.35;16.42;;;;;;;-1.19;73.42;98325.41;10407604;28;20661;-49
2023/12/04 21:48:23;;;;;;;19.13;13.13;;;;;;;-1.09;72.46;98304.75;10408198;28;20060;-50
2023/12/04 21:53:22;;;;;;;19.80;14.27;;;;;;;-1.07;73.36;98300.63;10407673;28;20048;-50
2023/12/04 21:58:21;;;;;;;27.25;17.00;;;;;;;-1.14;73.80;98278.16;10407446;28;20037;-49
2023/12/04 22:03:20;;;;;;;;;;;;;;;-0.88;73.74;98322.84;10407775;28;20063;-50
2023/12/04 22:08:19;;;;;;;34.05;18.13;;;;;;;-0.95;73.47;98279.09;10407906;28;19912;-49
2023/12/04 22:13:18;;;;;;;24.75;17.15;;;;;;;-1.22;73.79;98243.75;10406211;28;20036;-49
2023/12/04 22:18:17;;;;;;;;;;;;;;;-0.82;73.96;98287.47;10407561;28;20452;-50
2023/12/04 22:23:16;;;;;;;43.65;26.05;;;;;;;-1.60;74.42;98137.38;10406497;28;20388;-49
2023/12/04 22:28:16;;;;;;;34.35;22.05;;;;;;;-0.97;74.17;98230.66;10406284;28;20051;-49
2023/12/04 22:33:15;;;;;;;37.35;23.42;;;;;;;-0.97;75.34;98258.66;10412478;28;20494;-49
2023/12/04 22:38:14;;;;;;;35.90;22.85;;;;;;;-1.12;75.27;98228.16;10414172;28;20052;-49
2023/12/04 22:43:13;;;;;;;38.08;22.38;;;;;;;-1.13;74.71;98207.72;10413716;28;20036;-50
2023/12/04 22:48:12;;;;;;;39.58;24.83;;;;;;;-1.20;75.82;98251.50;10414057;28;20086;-50
2023/12/04 22:53:11;;;;;;;36.22;22.70;;;;;;;-1.75;75.94;98153.59;10413413;28;20131;-49
2023/12/04 22:58:10;;;;;;;39.80;23.10;;;;;;;-1.87;77.13;98158.00;10413312;28;20033;-49
2023/12/04 23:03:09;;;;;;;31.83;20.75;;;;;;;-2.30;77.61;98109.91;10412839;28;20063;-50
2023/12/04 23:08:08;;;;;;;31.58;20.50;;;;;;;-2.41;78.19;98101.69;10411561;28;20136;-49
2023/12/04 23:13:07;;;;;;;27.83;17.58;;;;;;;-1.90;78.53;98201.09;10412405;28;20139;-49
2023/12/04 23:18:06;;;;;;;22.40;14.93;;;;;;;-2.31;79.65;98162.44;10412908;28;20039;-50
2023/12/04 23:23:05;;;;;;;20.70;13.18;;;;;;;-2.00;80.05;98226.81;10412087;28;20110;-49
2023/12/04 23:28:04;;;;;;;21.92;12.82;;;;;;;-2.48;80.88;98158.03;10411918;28;20017;-50
2023/12/04 23:33:03;;;;;;;22.98;12.65;;;;;;;-2.46;80.57;98168.31;10412018;28;20037;-49
2023/12/04 23:38:02;;;;;;;16.98;12.60;;;;;;;-2.15;80.23;98201.41;10411644;28;20074;-49